KPIB/PIB METAR and TAF weather

Enter ICAO airport designator
Station Type Date Time Source
KPIB METAR 2020/08/07 10:56 UTC NOAA

KPIB 071056Z AUTO 00000KT 6SM BR CLR 19/19 A3006 RMK AO2 SLP176 T01890189


Station Type Date Time Source
KPIB Decoded METAR 2020/08/07 10:56 UTC NOAA

Hattiesburg/Laurel, Hattiesburg-Laurel Regional Airport, MS, United States (KPIB) 31-28N 089-20W
Aug 07, 2020 - 06:56 AM EDT / 2020.08.07 1056 UTC
Wind: Calm:0
Visibility: 6 mile(s):0
Sky conditions: clear
Weather: mist
Temperature: 66.0 F (18.9 C)
Dew Point: 66.0 F (18.9 C)
Relative Humidity: 100%
Pressure (altimeter): 30.06 in. Hg (1017 hPa)
ob: KPIB 071056Z AUTO 00000KT 6SM BR CLR 19/19 A3006 RMK AO2 SLP176 T01890189
cycle: 11

Station Type Date Time Source
KPIB TAF 2020/08/07 12:21 UTC NOAA

TAF KPIB 071120Z 0712/0812 00000KT 4SM BR SKC
FM071300 32005KT P6SM SKC

Example: see airport list